Time;durP1;ratioP1;P1;durP2;ratioP2;P2;SDS_P1;SDS_P2;PMS_P1;PMS_P2;Temp;Humidity;BMP_temperature;BMP_pressure;BME280_temperature;BME280_humidity;BME280_pressure;Samples;Min_cycle;Max_cycle;Signal;HPM_P1;HPM_P2
2024/01/22 00:01:36;;;;;;;10.05;6.47;;;;;;;6.16;76.90;103526.91;5071815;28;20032;-87
2024/01/22 00:04:01;;;;;;;9.43;5.78;;;;;;;6.17;76.81;103523.59;5072436;28;20068;-88
2024/01/22 00:06:27;;;;;;;11.98;6.38;;;;;;;6.18;76.60;103536.75;5072766;28;20116;-88
2024/01/22 00:08:53;;;;;;;8.70;6.03;;;;;;;5.97;76.66;103506.66;5068111;28;20409;-87
2024/01/22 00:11:18;;;;;;;9.93;5.90;;;;;;;6.15;76.64;103530.28;5082536;28;20248;-87
2024/01/22 00:13:45;;;;;;;9.40;5.85;;;;;;;5.92;76.97;103489.56;5044233;28;20091;-87
2024/01/22 00:16:12;;;;;;;10.98;5.82;;;;;;;5.84;76.75;103477.38;5054047;28;20450;-87
2024/01/22 00:18:38;;;;;;;11.07;5.97;;;;;;;5.70;76.77;103450.75;5071049;28;20024;-87
2024/01/22 00:21:04;;;;;;;;;;;;;;;6.18;76.80;103541.00;5071211;28;20115;-87
2024/01/22 00:23:30;;;;;;;9.50;5.95;;;;;;;5.79;76.52;103484.63;5088845;28;20479;-87
2024/01/22 00:25:55;;;;;;;10.25;6.43;;;;;;;6.04;76.52;103527.34;5065370;28;20028;-88
2024/01/22 00:28:21;;;;;;;9.20;6.38;;;;;;;6.07;77.10;103529.38;5073274;28;20036;-87
2024/01/22 00:30:47;;;;;;;9.60;6.15;;;;;;;5.88;76.78;103492.53;5069096;28;20106;-87
2024/01/22 00:33:12;;;;;;;11.13;6.30;;;;;;;6.06;76.85;103514.56;5072834;28;20115;-88
2024/01/22 00:35:38;;;;;;;10.25;6.10;;;;;;;6.11;76.89;103532.50;5060138;28;20107;-87
2024/01/22 00:38:04;;;;;;;9.05;5.68;;;;;;;5.43;76.97;103400.88;5070744;28;20043;-87
2024/01/22 00:40:30;;;;;;;9.85;5.90;;;;;;;5.81;76.62;103466.66;5072417;28;20028;-87
2024/01/22 00:42:56;;;;;;;8.50;5.82;;;;;;;5.59;76.73;103442.47;5050235;28;20040;-87
2024/01/22 00:45:22;;;;;;;10.65;6.43;;;;;;;5.67;76.69;103459.84;5065486;28;20455;-87
2024/01/22 00:47:47;;;;;;;11.25;6.55;;;;;;;5.99;76.94;103517.16;5082917;28;20387;-87
2024/01/22 00:50:13;;;;;;;13.27;7.05;;;;;;;5.89;76.55;103507.38;5082731;28;20039;-88
2024/01/22 00:52:39;;;;;;;11.85;6.75;;;;;;;5.70;76.88;103463.72;5089155;28;20044;-87
2024/01/22 00:55:07;;;;;;;11.30;6.43;;;;;;;5.91;76.81;103490.31;5071772;28;20067;-87
2024/01/22 00:57:32;;;;;;;11.80;6.35;;;;;;;5.49;76.51;103415.47;5056282;28;20118;-87
2024/01/22 00:59:58;;;;;;;9.48;6.38;;;;;;;5.91;76.89;103501.63;5088940;28;20496;-87
2024/01/22 01:02:25;;;;;;;10.95;6.30;;;;;;;5.73;76.89;103470.94;5090187;28;20077;-86
2024/01/22 01:04:51;;;;;;;11.40;6.55;;;;;;;5.83;76.92;103485.91;5089643;28;20103;-87
2024/01/22 01:07:16;;;;;;;9.68;6.00;;;;;;;5.95;76.91;103510.72;5089116;28;20537;-86
2024/01/22 01:09:42;;;;;;;10.40;6.28;;;;;;;5.65;76.53;103461.34;5050044;28;20107;-87
2024/01/22 01:12:08;;;;;;;9.50;6.10;;;;;;;5.42;76.76;103412.94;5075925;28;20055;-86
2024/01/22 01:14:33;;;;;;;10.90;6.35;;;;;;;5.86;76.53;103500.16;5076235;28;20173;-87
2024/01/22 01:16:59;;;;;;;9.50;6.30;;;;;;;5.71;77.06;103469.81;5072481;28;20688;-87
2024/01/22 01:19:25;;;;;;;10.98;6.75;;;;;;;5.61;76.45;103454.88;5070747;28;20028;-87
2024/01/22 01:21:50;;;;;;;11.43;6.57;;;;;;;5.64;76.74;103464.69;5065943;28;20031;-87
2024/01/22 01:24:17;;;;;;;10.43;6.78;;;;;;;5.87;76.73;103509.78;5072317;28;20047;-87
2024/01/22 01:26:48;;;;;;;11.93;6.53;;;;;;;5.58;76.38;103451.00;5088572;28;20032;-88
2024/01/22 01:29:14;;;;;;;9.15;5.82;;;;;;;5.85;76.88;103516.47;5075021;28;20024;-87
2024/01/22 01:31:40;;;;;;;10.50;5.90;;;;;;;5.96;77.03;103527.22;5093970;28;20588;-87
2024/01/22 01:34:06;;;;;;;9.15;6.07;;;;;;;5.53;76.99;103445.28;5098962;28;20028;-87
2024/01/22 01:36:32;;;;;;;11.05;6.40;;;;;;;5.76;76.63;103486.88;5107526;28;20055;-87
2024/01/22 01:38:58;;;;;;;9.88;6.10;;;;;;;5.98;76.85;103528.31;5099219;28;20048;-87
2024/01/22 01:41:24;;;;;;;9.55;6.15;;;;;;;5.28;76.86;103400.94;5116407;28;20468;-87
2024/01/22 01:43:50;;;;;;;8.25;5.47;;;;;;;5.65;76.66;103475.25;5093943;28;20059;-87
2024/01/22 01:46:15;;;;;;;9.68;6.15;;;;;;;5.80;77.06;103496.84;5103354;28;20055;-88
2024/01/22 01:48:41;;;;;;;11.20;6.60;;;;;;;5.42;76.39;103422.34;5092113;28;20115;-85
2024/01/22 01:51:07;;;;;;;8.65;5.85;;;;;;;5.51;76.73;103439.91;5081412;28;20039;-87
2024/01/22 01:53:33;;;;;;;9.68;6.03;;;;;;;5.64;77.16;103464.69;5079302;28;20834;-87
2024/01/22 01:55:59;;;;;;;10.70;6.82;;;;;;;5.48;76.89;103434.38;5125282;28;20067;-87
2024/01/22 01:58:25;;;;;;;9.43;6.22;;;;;;;5.80;76.87;103493.31;5100379;28;20505;-87
2024/01/22 02:00:54;;;;;;;10.77;6.28;;;;;;;5.38;77.08;103410.72;5102586;28;20036;-87
2024/01/22 02:03:20;;;;;;;8.82;5.82;;;;;;;5.90;76.86;103499.78;5115499;28;20712;-87
2024/01/22 02:05:46;;;;;;;11.30;6.70;;;;;;;5.69;76.95;103466.13;5094467;28;20118;-87
2024/01/22 02:08:12;;;;;;;10.77;6.05;;;;;;;5.53;76.78;103445.28;5075501;28;20067;-87
2024/01/22 02:10:37;;;;;;;8.13;5.63;;;;;;;5.69;76.69;103468.72;5092311;28;20673;-87
2024/01/22 02:13:06;;;;;;;9.98;6.38;;;;;;;5.90;76.88;103517.94;5091065;28;20070;-86
2024/01/22 02:15:33;;;;;;;9.75;6.53;;;;;;;5.64;76.76;103467.28;5111494;27;20102;-88
2024/01/22 02:18:02;;;;;;;11.57;6.00;;;;;;;5.31;77.02;103415.91;5111182;28;20409;-88
2024/01/22 02:20:29;;;;;;;11.32;6.57;;;;;;;5.34;76.96;103415.38;5077948;28;20114;-89
2024/01/22 02:22:55;;;;;;;10.02;6.40;;;;;;;5.48;76.62;103443.81;5095984;28;20618;-89
2024/01/22 02:25:26;;;;;;;9.27;5.82;;;;;;;5.84;77.02;103512.03;5112999;28;20098;-89
2024/01/22 02:27:52;;;;;;;10.73;6.50;;;;;;;5.76;77.05;103501.47;5096445;28;20035;-89
2024/01/22 02:30:18;;;;;;;10.50;6.10;;;;;;;5.66;77.18;103481.34;5078321;28;20024;-89
2024/01/22 02:32:43;;;;;;;9.77;6.28;;;;;;;5.60;76.99;103473.75;5095545;28;20034;-89
2024/01/22 02:35:09;;;;;;;10.98;6.70;;;;;;;5.71;76.89;103488.94;5101056;28;20043;-88
2024/01/22 02:37:34;;;;;;;8.82;5.55;;;;;;;5.48;76.80;103447.34;5095483;28;20041;-89
2024/01/22 02:40:01;;;;;;;9.30;5.95;;;;;;;5.49;76.58;103454.34;5094401;28;20054;-89
2024/01/22 02:42:28;;;;;;;10.55;6.55;;;;;;;5.73;77.11;103491.69;5096287;28;20076;-89
2024/01/22 02:44:53;;;;;;;11.02;6.75;;;;;;;5.51;77.06;103446.78;5093869;28;20114;-89
2024/01/22 02:47:19;;;;;;;10.68;6.32;;;;;;;5.67;76.79;103478.00;5076785;28;20028;-90
2024/01/22 02:49:49;;;;;;;9.48;6.15;;;;;;;5.46;76.38;103445.28;5096264;28;20122;-89
2024/01/22 02:52:15;;;;;;;10.30;6.13;;;;;;;5.47;76.56;103442.88;5093653;28;20028;-89
2024/01/22 02:54:42;;;;;;;9.50;6.15;;;;;;;5.64;76.59;103470.78;5075561;28;20058;-89
2024/01/22 02:57:10;;;;;;;10.55;6.75;;;;;;;5.58;76.68;103462.28;5111399;28;20055;-90
2024/01/22 02:59:37;;;;;;;10.15;6.80;;;;;;;5.43;76.82;103440.69;5071407;28;20055;-88
2024/01/22 03:02:08;;;;;;;;;;;;;;;5.64;76.74;103483.75;5072170;28;20024;-89
2024/01/22 03:04:34;;;;;;;9.93;6.22;;;;;;;5.50;76.74;103450.09;5081353;28;20567;-88
2024/01/22 03:07:01;;;;;;;12.43;7.07;;;;;;;5.44;76.76;103437.34;5050389;28;20119;-89
2024/01/22 03:09:27;;;;;;;11.15;6.45;;;;;;;5.64;76.82;103470.78;5076986;28;20043;-87
2024/01/22 03:11:53;;;;;;;12.20;7.13;;;;;;;5.42;76.88;103437.91;5055193;28;20093;-88
2024/01/22 03:14:19;;;;;;;10.90;6.55;;;;;;;5.44;77.30;103436.41;5057750;28;20020;-88
2024/01/22 03:16:44;;;;;;;10.75;6.40;;;;;;;5.43;76.89;103431.97;5092608;28;20536;-88
2024/01/22 03:19:17;;;;;;;9.60;6.63;;;;;;;5.47;76.88;103442.88;5074718;28;20020;-89
2024/01/22 03:21:43;;;;;;;12.32;7.00;;;;;;;5.61;77.09;103467.84;5066321;28;20429;-88
2024/01/22 03:24:08;;;;;;;10.15;6.57;;;;;;;5.66;76.57;103478.75;5068356;28;20026;-88
2024/01/22 03:26:35;;;;;;;10.70;6.53;;;;;;;5.47;77.00;103444.56;5074783;28;20020;-88
2024/01/22 03:29:11;;;;;;;11.85;6.80;;;;;;;5.39;76.64;103440.13;5092935;28;20044;-89
2024/01/22 03:31:37;;;;;;;9.38;6.18;;;;;;;5.45;76.82;103438.28;5058093;28;20422;-89
2024/01/22 03:34:03;;;;;;;10.55;6.30;;;;;;;5.59;77.39;103468.38;5076311;28;20019;-89
2024/01/22 03:36:29;;;;;;;10.60;6.60;;;;;;;5.48;76.94;103457.72;5074735;28;20501;-90
2024/01/22 03:38:55;;;;;;;11.02;6.65;;;;;;;5.64;77.27;103478.56;5090314;28;20103;-88
2024/01/22 03:41:23;;;;;;;10.85;6.40;;;;;;;5.63;76.85;103480.97;5072278;28;20467;-88
2024/01/22 03:43:49;;;;;;;11.68;7.30;;;;;;;5.56;77.14;103479.31;5066944;28;20481;-87
2024/01/22 03:46:15;;;;;;;11.25;6.80;;;;;;;5.36;77.02;103439.78;5068536;28;20029;-89
2024/01/22 03:48:41;;;;;;;12.30;7.05;;;;;;;5.47;76.82;103465.28;5054904;28;20093;-90
2024/01/22 03:51:07;;;;;;;11.48;6.95;;;;;;;5.43;76.92;103455.31;5071839;28;20028;-89
2024/01/22 03:53:34;;;;;;;10.80;6.95;;;;;;;5.37;76.92;103447.72;5061769;28;20478;-90
2024/01/22 03:56:05;;;;;;;11.10;6.50;;;;;;;5.50;77.10;103471.78;5073704;28;20498;-89
2024/01/22 03:58:31;;;;;;;10.88;6.57;;;;;;;5.38;77.50;103449.59;5054169;28;20036;-90
2024/01/22 04:00:56;;;;;;;;;;;;;;;5.60;77.13;103494.50;5054393;28;20028;-90
2024/01/22 04:03:25;;;;;;;12.38;7.07;;;;;;;5.29;76.62;103446.84;5055356;28;20319;-89
2024/01/22 04:05:53;;;;;;;11.25;6.82;;;;;;;5.29;77.13;103448.47;5072360;28;20039;-88
2024/01/22 04:08:21;;;;;;;11.45;7.20;;;;;;;5.21;76.97;103431.13;5077379;28;20024;-88
2024/01/22 04:10:47;;;;;;;10.63;6.53;;;;;;;5.14;77.13;103416.50;5059406;28;20090;-89
2024/01/22 04:13:15;;;;;;;13.25;6.93;;;;;;;5.00;77.18;103399.34;5072409;28;20462;-90
2024/01/22 04:15:42;;;;;;;9.95;6.15;;;;;;;5.55;76.62;103495.63;5090798;28;20421;-89
2024/01/22 04:18:07;;;;;;;11.68;6.90;;;;;;;5.17;76.96;103419.47;5091288;28;20470;-88
2024/01/22 04:20:34;;;;;;;11.10;6.85;;;;;;;5.44;77.06;103468.47;5067572;28;20063;-90
2024/01/22 04:23:00;;;;;;;10.30;6.72;;;;;;;5.19;76.90;103428.34;5072153;28;20032;-88
2024/01/22 04:25:26;;;;;;;11.38;6.57;;;;;;;5.41;77.07;103474.94;5072878;28;20512;-88
2024/01/22 04:27:54;;;;;;;13.38;7.25;;;;;;;5.37;77.29;103460.69;5059945;28;20036;-88
2024/01/22 04:30:20;;;;;;;11.30;6.82;;;;;;;5.10;77.23;103424.66;5073853;28;20478;-88
2024/01/22 04:32:47;;;;;;;9.98;6.53;;;;;;;5.55;76.95;103505.09;5073420;28;20056;-89
2024/01/22 04:35:13;;;;;;;9.98;6.43;;;;;;;5.39;76.63;103471.25;5072514;28;20040;-89
2024/01/22 04:37:40;;;;;;;10.45;6.53;;;;;;;5.32;76.91;103461.81;5056435;28;20031;-89
2024/01/22 04:40:14;;;;;;;11.15;6.70;;;;;;;5.51;76.88;103494.34;5056667;28;20040;-88
2024/01/22 04:42:43;;;;;;;11.75;6.80;;;;;;;5.32;77.01;103460.91;5072402;28;20032;-88
2024/01/22 04:45:09;;;;;;;8.85;5.97;;;;;;;5.50;77.08;103497.69;5081638;28;20035;-88
2024/01/22 04:47:35;;;;;;;10.65;6.78;;;;;;;5.32;77.04;103463.50;5074448;28;20120;-89
2024/01/22 04:50:01;;;;;;;9.63;6.07;;;;;;;5.11;77.27;103429.09;5072124;28;20040;-85
2024/01/22 04:52:26;;;;;;;9.82;6.43;;;;;;;5.13;77.13;103435.41;5050531;28;20024;-87
2024/01/22 04:54:53;;;;;;;10.70;6.60;;;;;;;5.15;76.84;103436.50;5070993;28;20090;-88
2024/01/22 04:57:24;;;;;;;12.85;7.38;;;;;;;5.35;76.97;103479.38;5070530;28;20429;-88
2024/01/22 04:59:51;;;;;;;11.80;6.88;;;;;;;5.48;76.96;103499.19;5067309;28;20051;-89
2024/01/22 05:02:22;;;;;;;10.98;6.95;;;;;;;5.34;77.06;103477.56;5072157;28;20039;-89
2024/01/22 05:04:48;;;;;;;11.20;6.70;;;;;;;5.28;77.03;103470.88;5071915;28;20032;-88
2024/01/22 05:07:14;;;;;;;12.00;6.95;;;;;;;5.41;76.90;103488.81;5092291;28;20035;-91
2024/01/22 05:09:39;;;;;;;9.90;6.47;;;;;;;5.47;77.21;103504.16;5074817;28;20507;-89
2024/01/22 05:12:05;;;;;;;11.40;6.97;;;;;;;5.40;76.75;103494.75;5090720;28;20084;-89
2024/01/22 05:14:31;;;;;;;11.40;6.38;;;;;;;5.11;77.05;103442.06;5065465;28;20020;-86
2024/01/22 05:16:57;;;;;;;10.88;6.75;;;;;;;5.08;76.95;103436.53;5070404;28;20441;-88
2024/01/22 05:19:23;;;;;;;10.45;6.43;;;;;;;5.12;76.90;103445.56;5081611;28;20032;-88
2024/01/22 05:21:49;;;;;;;10.48;6.55;;;;;;;5.15;76.94;103452.03;5089648;28;20032;-87
2024/01/22 05:24:14;;;;;;;10.80;6.30;;;;;;;5.02;77.14;103441.88;5069238;28;20048;-86
2024/01/22 05:26:44;;;;;;;11.75;6.78;;;;;;;5.23;77.15;103465.91;5076840;28;20062;-88
2024/01/22 05:29:10;;;;;;;11.82;6.82;;;;;;;5.25;77.07;103477.41;5071560;28;20047;-87
2024/01/22 05:31:36;;;;;;;10.55;6.38;;;;;;;5.20;76.95;103476.81;5072972;28;20032;-89
2024/01/22 05:34:03;;;;;;;11.30;6.70;;;;;;;5.01;76.97;103431.34;5081971;28;20036;-88
2024/01/22 05:36:29;;;;;;;9.82;6.35;;;;;;;5.36;77.35;103512.34;5090026;28;20028;-89
2024/01/22 05:38:56;;;;;;;10.77;6.63;;;;;;;5.09;77.26;103465.19;5068784;28;20089;-88
2024/01/22 05:41:24;;;;;;;9.30;5.93;;;;;;;5.07;76.87;103450.19;5070095;28;20046;-90
2024/01/22 05:43:50;;;;;;;9.50;5.93;;;;;;;4.93;76.88;103419.13;5077574;28;20031;-87
2024/01/22 05:46:17;;;;;;;10.20;6.43;;;;;;;5.03;77.17;103459.25;5078221;28;20032;-87
2024/01/22 05:48:43;;;;;;;10.27;6.43;;;;;;;4.95;77.38;103435.78;5068056;28;20429;-87
2024/01/22 05:51:10;;;;;;;10.73;6.47;;;;;;;5.39;77.30;103516.22;5070857;28;20043;-89
2024/01/22 05:53:37;;;;;;;12.23;6.45;;;;;;;5.38;77.03;103510.88;5065158;28;20044;-87
2024/01/22 05:56:06;;;;;;;10.18;5.93;;;;;;;5.20;76.89;103475.91;5073490;28;20390;-88
2024/01/22 05:58:31;;;;;;;11.85;6.65;;;;;;;5.30;77.25;103507.34;5062087;28;20467;-89
2024/01/22 06:00:58;;;;;;;9.65;6.13;;;;;;;5.17;77.07;103489.41;5071473;28;20046;-90
2024/01/22 06:03:24;;;;;;;10.48;6.15;;;;;;;5.19;77.08;103490.53;5068891;28;20197;-90
2024/01/22 06:05:49;;;;;;;10.07;6.25;;;;;;;4.98;76.69;103454.31;5071827;28;20098;-89
2024/01/22 06:08:17;;;;;;;9.90;6.10;;;;;;;5.14;77.26;103481.25;5056002;28;20028;-89
2024/01/22 06:10:43;;;;;;;10.05;6.30;;;;;;;5.16;76.82;103484.97;5054051;28;20028;-89
2024/01/22 06:13:08;;;;;;;9.00;6.00;;;;;;;5.07;76.92;103469.25;5071262;28;20032;-86
2024/01/22 06:15:35;;;;;;;9.57;6.15;;;;;;;5.24;76.79;103491.06;5051480;28;20040;-88
2024/01/22 06:18:01;;;;;;;9.60;6.47;;;;;;;5.29;76.94;103505.50;5067071;28;20035;-90
2024/01/22 06:20:29;;;;;;;10.80;6.30;;;;;;;4.94;76.88;103434.88;5054366;28;20036;-88
2024/01/22 06:22:55;;;;;;;11.02;6.65;;;;;;;5.10;76.03;103458.31;5076207;28;20028;-88
2024/01/22 06:25:21;;;;;;;10.95;6.25;;;;;;;5.19;76.59;103476.66;5078453;28;20417;-89
2024/01/22 06:27:47;;;;;;;10.95;6.60;;;;;;;5.00;76.78;103458.00;5074850;28;20073;-89
2024/01/22 06:30:13;;;;;;;9.98;6.13;;;;;;;5.06;76.95;103467.41;5064902;28;20036;-86
2024/01/22 06:32:39;;;;;;;;;;;;;;;5.33;76.52;103522.34;5070613;28;20127;-88
2024/01/22 06:35:05;;;;;;;9.30;5.78;;;;;;;4.89;76.59;103462.81;5075376;28;19985;-88
2024/01/22 06:37:34;;;;;;;9.73;5.93;;;;;;;5.05;76.22;103498.31;5090053;28;20062;-89
2024/01/22 06:40:01;;;;;;;12.13;6.80;;;;;;;5.27;76.97;103535.47;5074401;28;20473;-90
2024/01/22 06:42:26;;;;;;;10.10;6.38;;;;;;;4.97;76.49;103487.00;5073046;28;20020;-89
2024/01/22 06:44:52;;;;;;;10.23;6.03;;;;;;;5.28;76.73;103538.25;5073749;28;20085;-90
2024/01/22 06:47:17;;;;;;;9.77;6.15;;;;;;;5.18;76.77;103513.66;5075945;28;20115;-89
2024/01/22 06:49:48;;;;;;;9.43;6.32;;;;;;;5.12;77.03;103510.31;5056189;28;20028;-90
2024/01/22 06:52:15;;;;;;;10.75;6.47;;;;;;;5.20;76.68;103525.13;5074352;28;20467;-90
2024/01/22 06:54:41;;;;;;;10.10;6.05;;;;;;;4.94;76.75;103476.31;5076191;28;20035;-89
2024/01/22 06:57:08;;;;;;;10.55;6.40;;;;;;;5.05;76.58;103496.63;5062098;28;20072;-89
2024/01/22 06:59:34;;;;;;;10.20;6.05;;;;;;;4.92;76.51;103475.19;5066729;28;20518;-87
2024/01/22 07:02:00;;;;;;;9.32;5.85;;;;;;;5.26;77.03;103531.97;5042944;28;20101;-88
2024/01/22 07:04:26;;;;;;;10.05;6.40;;;;;;;4.70;76.59;103435.44;5070599;28;20060;-89
2024/01/22 07:06:51;;;;;;;9.75;6.47;;;;;;;5.33;76.77;103543.06;5071384;28;20040;-88
2024/01/22 07:09:17;;;;;;;9.68;6.00;;;;;;;5.07;76.47;103494.25;5037808;28;20036;-86
2024/01/22 07:11:43;;;;;;;9.77;6.15;;;;;;;5.27;76.58;103530.28;5048750;28;20051;-87
2024/01/22 07:14:09;;;;;;;10.70;6.50;;;;;;;5.07;76.50;103489.97;5056530;28;20036;-86
2024/01/22 07:16:34;;;;;;;10.25;6.68;;;;;;;5.35;76.53;103541.59;5048677;28;20089;-85
2024/01/22 07:19:00;;;;;;;10.63;6.40;;;;;;;5.12;77.08;103499.97;5040367;28;20119;-86
2024/01/22 07:21:26;;;;;;;11.85;6.65;;;;;;;5.25;76.74;103513.66;5073005;28;20070;-90
2024/01/22 07:23:53;;;;;;;;;;;;;;;5.34;76.72;103539.75;5049762;28;20055;-87
2024/01/22 07:26:18;;;;;;;11.10;6.22;;;;;;;5.12;76.45;103512.91;5033357;28;19920;-89
2024/01/22 07:28:44;;;;;;;10.88;6.40;;;;;;;5.29;76.59;103546.94;5029487;28;20036;-87
2024/01/22 07:31:11;;;;;;;9.40;5.95;;;;;;;5.08;76.82;103509.97;5055522;28;20102;-88
2024/01/22 07:33:37;;;;;;;9.75;6.07;;;;;;;4.93;76.31;103471.84;5052171;28;20087;-89
2024/01/22 07:36:03;;;;;;;10.25;6.20;;;;;;;5.04;76.16;103496.47;5053461;28;20064;-87
2024/01/22 07:38:29;;;;;;;10.07;6.18;;;;;;;4.90;76.34;103475.00;5059998;28;20055;-87
2024/01/22 07:40:54;;;;;;;11.00;6.50;;;;;;;4.93;76.27;103479.63;5038199;28;20044;-85
2024/01/22 07:43:20;;;;;;;10.30;6.15;;;;;;;4.98;76.51;103488.88;5074899;28;20051;-86
2024/01/22 07:45:46;;;;;;;9.43;5.85;;;;;;;4.85;76.79;103465.78;5041589;28;20024;-86
2024/01/22 07:48:12;;;;;;;10.45;6.10;;;;;;;5.18;76.61;103514.56;5070634;28;20107;-87
2024/01/22 07:50:46;;;;;;;12.18;6.78;;;;;;;4.70;76.69;103427.69;5052486;28;20131;-88
2024/01/22 07:53:12;;;;;;;9.20;6.07;;;;;;;5.03;76.46;103489.44;5033073;28;20112;-88
2024/01/22 07:55:38;;;;;;;8.15;5.93;;;;;;;4.62;76.50;103416.41;5045147;28;20111;-87
2024/01/22 07:58:04;;;;;;;12.18;6.30;;;;;;;4.89;76.37;103464.47;5038102;28;20598;-87
2024/01/22 08:00:33;;;;;;;9.45;6.15;;;;;;;5.16;76.51;103515.13;5060834;28;20052;-87
2024/01/22 08:02:58;;;;;;;9.23;5.88;;;;;;;5.21;76.42;103525.31;5037096;28;20036;-87
2024/01/22 08:05:24;;;;;;;9.38;6.10;;;;;;;4.93;76.64;103470.94;5059073;28;20028;-87
2024/01/22 08:07:50;;;;;;;9.50;5.82;;;;;;;5.10;76.70;103494.59;5036560;28;20119;-88
2024/01/22 08:10:16;;;;;;;7.15;5.18;;;;;;;5.10;76.49;103487.78;5041562;28;20114;-89
2024/01/22 08:12:42;;;;;;;9.35;6.03;;;;;;;5.00;76.57;103486.50;5041749;28;20469;-89
2024/01/22 08:15:09;;;;;;;9.43;6.18;;;;;;;5.10;76.20;103504.94;5035637;28;20017;-90
2024/01/22 08:17:36;;;;;;;8.30;5.65;;;;;;;5.05;76.58;103494.03;5061642;28;20121;-90
2024/01/22 08:20:05;;;;;;;9.35;5.85;;;;;;;5.29;76.40;103537.53;5036032;28;20024;-87
2024/01/22 08:22:30;;;;;;;10.35;5.97;;;;;;;5.35;76.95;103547.69;5058188;28;20032;-89
2024/01/22 08:24:56;;;;;;;9.90;5.70;;;;;;;4.94;76.41;103473.72;5057257;28;20432;-90
2024/01/22 08:27:22;;;;;;;9.60;5.93;;;;;;;5.09;76.49;103492.75;5075317;28;20039;-90
2024/01/22 08:29:54;;;;;;;8.75;5.47;;;;;;;4.97;76.21;103466.28;5075796;28;20039;-90
2024/01/22 08:32:21;;;;;;;8.18;5.40;;;;;;;5.22;76.36;103519.38;5060636;28;20089;-87
2024/01/22 08:34:49;;;;;;;9.10;5.80;;;;;;;5.09;76.51;103485.91;5076670;28;20024;-90
2024/01/22 08:37:23;;;;;;;9.25;5.80;;;;;;;4.96;76.47;103469.66;5060047;28;20027;-90
2024/01/22 08:39:49;;;;;;;10.35;5.82;;;;;;;5.35;76.30;103532.13;5067592;28;20032;-87
2024/01/22 08:42:21;;;;;;;7.75;5.07;;;;;;;5.10;76.80;103486.81;5084522;28;20152;-90
2024/01/22 08:44:46;;;;;;;9.20;5.55;;;;;;;5.06;76.65;103482.97;5055605;28;20043;-90
2024/01/22 08:47:12;;;;;;;9.07;5.80;;;;;;;5.37;76.57;103528.06;5049999;28;20036;-89
2024/01/22 08:49:38;;;;;;;9.93;5.82;;;;;;;4.96;76.40;103459.28;5066062;28;20031;-88
2024/01/22 08:52:12;;;;;;;8.65;5.68;;;;;;;5.25;76.49;103506.81;5080371;28;21031;-89
2024/01/22 08:54:40;;;;;;;9.50;6.32;;;;;;;5.30;76.87;103520.31;5054748;28;20044;-90
2024/01/22 08:57:06;;;;;;;8.75;5.38;;;;;;;5.26;76.58;103508.66;5071605;28;20035;-89
2024/01/22 08:59:31;;;;;;;9.40;5.93;;;;;;;4.93;76.40;103447.63;5059875;28;20044;-90
2024/01/22 09:01:58;;;;;;;8.43;5.85;;;;;;;4.99;76.83;103450.94;5054164;28;20040;-90
2024/01/22 09:04:38;;;;;;;9.20;5.57;;;;;;;5.00;76.79;103448.56;5076830;28;20032;-91
2024/01/22 09:07:09;;;;;;;9.15;5.78;;;;;;;5.22;76.28;103485.69;5073544;28;20483;-89
2024/01/22 09:09:36;;;;;;;9.57;5.60;;;;;;;4.97;76.18;103455.94;5074845;28;20390;-89
2024/01/22 09:12:03;;;;;;;9.25;5.40;;;;;;;5.08;76.04;103460.75;5079659;28;20027;-90
2024/01/22 09:14:29;;;;;;;8.85;5.43;;;;;;;5.09;76.10;103462.59;5056496;28;20032;-88
2024/01/22 09:16:55;;;;;;;8.50;5.60;;;;;;;5.16;76.00;103464.25;5065906;28;20670;-90
2024/01/22 09:19:21;;;;;;;9.43;5.50;;;;;;;4.79;76.09;103417.50;5056793;28;20039;-88
2024/01/22 09:21:47;;;;;;;8.77;5.47;;;;;;;4.84;74.54;103434.50;5071612;28;20534;-88
2024/01/22 09:24:12;;;;;;;10.15;6.13;;;;;;;5.06;75.04;103470.00;5069319;28;20509;-89
2024/01/22 09:26:42;;;;;;;9.60;5.65;;;;;;;4.95;75.45;103438.38;5055819;28;20036;-89
2024/01/22 09:29:07;;;;;;;10.57;5.28;;;;;;;5.00;75.47;103453.72;5072800;28;20504;-90
2024/01/22 09:31:35;;;;;;;10.48;5.70;;;;;;;5.13;76.26;103479.44;5066535;28;20039;-87
2024/01/22 09:34:00;;;;;;;9.85;5.80;;;;;;;4.94;74.69;103436.53;5058245;28;20140;-91
2024/01/22 09:36:26;;;;;;;12.18;5.50;;;;;;;5.17;75.78;103470.38;5056666;28;20482;-86
2024/01/22 09:38:57;;;;;;;8.40;5.47;;;;;;;4.95;75.68;103415.97;5073485;28;20035;-91
2024/01/22 09:41:23;;;;;;;10.00;5.50;;;;;;;4.86;76.05;103402.88;5056897;28;20032;-89
2024/01/22 09:43:48;;;;;;;7.90;5.13;;;;;;;4.70;75.96;103368.16;5072179;28;20024;-86
2024/01/22 09:46:29;;;;;;;13.90;5.93;;;;;;;5.16;75.13;103419.28;5055294;28;20043;-91
2024/01/22 09:48:55;;;;;;;64.25;9.00;;;;;;;5.29;75.51;103395.03;5057955;28;20068;-91
2024/01/22 09:51:58;;;;;;;20.08;6.35;;;;;;;5.47;75.67;103460.13;5053105;28;20037;-91
2024/01/22 09:54:28;;;;;;;22.60;6.25;;;;;;;5.14;75.70;103403.56;5071217;28;20070;-91
2024/01/22 09:56:54;;;;;;;15.40;6.13;;;;;;;5.10;76.40;103414.28;5060123;28;20077;-92
2024/01/22 09:59:25;;;;;;;14.20;6.30;;;;;;;4.94;76.05;103388.25;5060413;28;20063;-93
2024/01/22 10:02:40;;;;;;;20.38;6.47;;;;;;;5.28;76.59;103451.84;5064804;28;20044;-92
2024/01/22 10:05:09;;;;;;;18.80;6.32;;;;;;;5.21;76.36;103439.81;5095802;28;20028;-94
2024/01/22 10:07:36;;;;;;;15.38;5.88;;;;;;;5.24;76.46;103449.63;5077938;28;20093;-92
2024/01/22 10:10:26;;;;;;;19.25;5.88;;;;;;;5.23;76.54;103447.78;5076593;28;20097;-91
2024/01/22 10:13:17;;;;;;;17.35;5.90;;;;;;;5.24;76.21;103445.34;5076774;28;20546;-91
2024/01/22 10:16:11;;;;;;;12.00;5.70;;;;;;;5.22;76.46;103445.91;5077855;28;20489;-92
2024/01/22 10:18:54;;;;;;;11.70;6.32;;;;;;;5.19;75.89;103445.56;5076743;28;20032;-90
2024/01/22 10:21:22;;;;;;;18.73;7.00;;;;;;;5.23;75.73;103447.78;5057988;28;20027;-90
2024/01/22 10:24:13;;;;;;;16.23;6.30;;;;;;;5.24;75.83;103445.34;5077885;28;20028;-92
2024/01/22 10:27:14;;;;;;;14.70;6.80;;;;;;;5.09;76.11;103422.81;5071971;28;20032;-92
2024/01/22 10:29:52;;;;;;;13.73;6.35;;;;;;;5.04;75.55;103416.19;5076974;28;20039;-92
2024/01/22 10:32:24;;;;;;;13.65;6.75;;;;;;;4.98;75.71;103398.25;5056106;28;20107;-92
2024/01/22 10:34:53;;;;;;;15.15;6.70;;;;;;;5.23;75.76;103432.25;5059550;28;20127;-90
2024/01/22 10:37:20;;;;;;;16.55;6.68;;;;;;;4.90;75.49;103381.78;5065453;28;20021;-91
2024/01/22 10:40:09;;;;;;;10.88;5.78;;;;;;;5.10;75.62;103384.16;5064487;28;20032;-94
2024/01/22 10:42:38;;;;;;;12.43;6.10;;;;;;;5.45;74.86;103409.75;5080756;28;20028;-94
2024/01/22 10:45:31;;;;;;;12.55;6.50;;;;;;;5.36;75.75;103419.97;5076797;28;20580;-95
2024/01/22 10:48:00;;;;;;;11.45;5.65;;;;;;;5.19;75.93;103389.50;5064122;28;20040;-92
2024/01/22 10:50:28;;;;;;;10.88;6.13;;;;;;;5.37;75.75;103393.31;5064666;28;20485;-91
2024/01/22 10:52:54;;;;;;;10.63;6.07;;;;;;;5.33;75.67;103395.38;5078145;28;20074;-92
2024/01/22 10:55:20;;;;;;;9.40;5.90;;;;;;;5.17;75.49;103358.97;5065154;28;20036;-91
2024/01/22 10:57:49;;;;;;;9.05;5.25;;;;;;;4.95;75.79;103340.88;5080170;28;20032;-92
2024/01/22 11:00:16;;;;;;;11.52;5.78;;;;;;;5.50;75.70;103414.75;5067671;28;20155;-92
2024/01/22 11:02:43;;;;;;;10.90;5.60;;;;;;;5.01;75.21;103323.47;5077048;28;20032;-92
2024/01/22 11:05:24;;;;;;;12.73;5.57;;;;;;;5.17;75.30;103340.84;5082152;28;20058;-95
2024/01/22 11:07:51;;;;;;;10.43;5.95;;;;;;;5.35;75.13;103376.66;5078187;28;20032;-93
2024/01/22 11:10:22;;;;;;;9.10;5.57;;;;;;;5.36;75.15;103368.16;5047448;28;20052;-92
2024/01/22 11:12:54;;;;;;;10.63;5.82;;;;;;;5.26;75.45;103360.97;5055115;28;20034;-93
2024/01/22 11:15:20;;;;;;;11.27;5.90;;;;;;;5.45;75.74;103396.81;5088537;28;20479;-91
2024/01/22 11:17:47;;;;;;;10.45;5.28;;;;;;;5.07;75.40;103326.78;5073757;28;20024;-91
2024/01/22 11:20:20;;;;;;;10.82;5.57;;;;;;;5.20;75.90;103373.19;5055898;28;20043;-93
2024/01/22 11:23:24;;;;;;;10.63;5.30;;;;;;;5.53;75.29;103393.44;5074874;28;20028;-92
2024/01/22 11:26:02;;;;;;;9.93;5.85;;;;;;;5.47;75.53;103385.88;5059889;28;20123;-93
2024/01/22 11:28:35;;;;;;;9.20;5.43;;;;;;;5.11;75.52;103348.81;5059173;28;20401;-93
2024/01/22 11:31:24;;;;;;;13.70;6.43;;;;;;;5.48;75.24;103384.19;5058193;28;20059;-95
2024/01/22 11:34:00;;;;;;;9.98;5.90;;;;;;;5.27;76.10;103372.25;5056795;28;20115;-95